createdAt,value
2017-04-30T00:00:23.213Z,100928.15
2017-04-30T00:02:53.716Z,100924.60
2017-04-30T00:05:25.105Z,100927.20
2017-04-30T00:07:55.993Z,100928.55
2017-04-30T00:10:26.729Z,100928.55
2017-04-30T00:12:57.567Z,100931.89
2017-04-30T00:15:28.603Z,100930.07
2017-04-30T00:17:59.645Z,100930.11
2017-04-30T00:20:30.073Z,100928.89
2017-04-30T00:23:00.923Z,100932.28
2017-04-30T00:25:31.376Z,100930.55
2017-04-30T00:28:02.333Z,100937.12
2017-04-30T00:30:33.310Z,100933.78
2017-04-30T00:33:03.429Z,100934.66
2017-04-30T00:35:34.124Z,100940.20
2017-04-30T00:38:05.014Z,100936.14
2017-04-30T00:40:36.043Z,100939.75
2017-04-30T00:43:07.094Z,100937.44
2017-04-30T00:45:38.071Z,100927.98
2017-04-30T00:48:08.310Z,100932.28
2017-04-30T00:50:39.077Z,100934.02
2017-04-30T00:53:09.979Z,100928.84
2017-04-30T00:55:40.919Z,100927.52
2017-04-30T00:58:11.915Z,100932.28
2017-04-30T01:00:42.945Z,100936.14
2017-04-30T01:03:13.852Z,100933.94
2017-04-30T01:05:44.373Z,100933.15
2017-04-30T01:08:15.342Z,100934.45
2017-04-30T01:10:46.195Z,100937.98
2017-04-30T01:13:17.017Z,100939.64
2017-04-30T01:15:47.882Z,100947.19
2017-04-30T01:18:18.647Z,100944.12
2017-04-30T01:20:49.326Z,100942.02
2017-04-30T01:23:19.696Z,100941.52
2017-04-30T01:25:50.438Z,100942.59
2017-04-30T01:28:21.007Z,100933.92
2017-04-30T01:30:51.921Z,100937.45
2017-04-30T01:33:23.001Z,100941.38
2017-04-30T01:35:53.944Z,100943.98
2017-04-30T01:38:24.985Z,100942.64
2017-04-30T01:40:55.926Z,100936.24
2017-04-30T01:43:26.571Z,100935.84
2017-04-30T01:45:57.205Z,100934.97
2017-04-30T01:48:27.957Z,100941.01
2017-04-30T01:50:59.091Z,100947.44
2017-04-30T01:53:29.928Z,100939.19
2017-04-30T01:56:00.560Z,100955.27
2017-04-30T01:58:31.492Z,100956.62
2017-04-30T02:01:02.147Z,100957.94
2017-04-30T02:03:32.874Z,100951.97
2017-04-30T02:06:03.614Z,100955.45
2017-04-30T02:08:34.434Z,100951.64
2017-04-30T02:11:05.333Z,100946.95
2017-04-30T02:13:36.016Z,100949.19
2017-04-30T02:16:06.822Z,100950.08
2017-04-30T02:18:37.779Z,100951.77
2017-04-30T02:21:09.032Z,100946.97
2017-04-30T02:23:39.856Z,100950.94
2017-04-30T02:26:10.306Z,100951.34
2017-04-30T02:28:41.320Z,100957.36
2017-04-30T02:31:12.276Z,100959.49
2017-04-30T02:33:42.724Z,100955.72
2017-04-30T02:36:13.684Z,100956.97
2017-04-30T02:38:44.401Z,100948.31
2017-04-30T02:41:15.263Z,100952.67
2017-04-30T02:43:46.282Z,100959.49
2017-04-30T02:46:17.273Z,100949.14
2017-04-30T02:48:47.976Z,100951.39
2017-04-30T02:51:19.155Z,100953.95
2017-04-30T02:53:50.005Z,100957.97
2017-04-30T02:56:21.021Z,100961.46
2017-04-30T02:58:51.965Z,100958.42
2017-04-30T03:01:22.901Z,100955.00
2017-04-30T03:03:53.640Z,100962.82
2017-04-30T03:06:24.676Z,100961.52
2017-04-30T03:08:55.702Z,100957.25
2017-04-30T03:11:26.657Z,100958.95
2017-04-30T03:13:57.533Z,100953.41
2017-04-30T03:16:28.296Z,100956.77
2017-04-30T03:18:58.815Z,100955.07
2017-04-30T03:21:29.604Z,100957.70
2017-04-30T03:24:00.510Z,100952.06
2017-04-30T03:26:31.436Z,100953.74
2017-04-30T03:29:02.325Z,100950.73
2017-04-30T03:31:33.460Z,100952.03
2017-04-30T03:34:04.149Z,100947.78
2017-04-30T03:36:35.082Z,100952.07
2017-04-30T03:39:17.157Z,100947.38
2017-04-30T03:42:05.200Z,100952.55
2017-04-30T03:44:53.273Z,100948.25
2017-04-30T03:47:41.507Z,100948.27
2017-04-30T03:50:29.172Z,100952.13
2017-04-30T03:53:17.114Z,100953.84
2017-04-30T03:56:04.633Z,100952.96
2017-04-30T03:58:52.419Z,100952.97
2017-04-30T04:01:40.204Z,100951.67
2017-04-30T04:04:27.938Z,100951.67
2017-04-30T04:07:15.769Z,100957.71
2017-04-30T04:10:03.498Z,100958.61
2017-04-30T04:12:51.311Z,100962.46
2017-04-30T04:15:39.357Z,100962.06
2017-04-30T04:18:27.477Z,100963.36
2017-04-30T04:21:15.113Z,100962.04
2017-04-30T04:24:02.935Z,100958.56
2017-04-30T04:26:50.669Z,100970.22
2017-04-30T04:29:38.317Z,100969.39
2017-04-30T04:32:25.928Z,100970.68
2017-04-30T04:35:13.678Z,100968.94
2017-04-30T04:38:01.454Z,100966.32
2017-04-30T04:40:50.401Z,100969.72
2017-04-30T04:43:38.129Z,100969.67
2017-04-30T04:46:25.677Z,100966.17
2017-04-30T04:49:13.407Z,100967.71
2017-04-30T04:52:01.404Z,100967.73
2017-04-30T04:54:48.993Z,100966.32
2017-04-30T04:57:36.791Z,100975.38
2017-04-30T05:00:24.315Z,100972.71
2017-04-30T05:03:12.074Z,100970.91
2017-04-30T05:06:00.201Z,100966.92
2017-04-30T05:08:48.030Z,100968.19
2017-04-30T05:11:35.932Z,100965.59
2017-04-30T05:14:23.779Z,100972.86
2017-04-30T05:17:11.651Z,100976.64
2017-04-30T05:19:59.464Z,100973.62
2017-04-30T05:22:47.221Z,100968.77
2017-04-30T05:25:34.929Z,100968.38
2017-04-30T05:28:22.550Z,100967.55
2017-04-30T05:31:10.711Z,100967.08
2017-04-30T05:33:58.632Z,100966.96
2017-04-30T05:36:46.369Z,100971.61
2017-04-30T05:39:34.124Z,100961.95
2017-04-30T05:42:23.332Z,100965.27
2017-04-30T05:45:11.524Z,100964.23
2017-04-30T05:47:59.101Z,100961.14
2017-04-30T05:50:47.091Z,100969.20
2017-04-30T05:53:36.645Z,100967.02
2017-04-30T05:56:25.015Z,100972.53
2017-04-30T05:59:13.028Z,100976.20
2017-04-30T06:02:02.590Z,100978.75
2017-04-30T06:04:53.679Z,100981.59
2017-04-30T06:07:42.270Z,100975.41
2017-04-30T06:10:33.002Z,100976.55
2017-04-30T06:13:23.568Z,100975.38
2017-04-30T06:16:13.810Z,100975.13
2017-04-30T06:19:04.117Z,100978.81
2017-04-30T06:21:54.156Z,100981.66
2017-04-30T06:24:44.479Z,100976.80
2017-04-30T06:27:32.773Z,100974.89
2017-04-30T06:30:22.560Z,100972.31
2017-04-30T06:33:13.378Z,100971.66
2017-04-30T06:36:03.594Z,100964.34
2017-04-30T06:38:54.408Z,100966.72
2017-04-30T06:41:44.301Z,100963.88
2017-04-30T06:44:34.410Z,100963.56
2017-04-30T06:47:22.945Z,100963.89
2017-04-30T06:50:10.570Z,100962.25
2017-04-30T06:52:58.597Z,100964.39
2017-04-30T06:55:46.165Z,100962.85
2017-04-30T06:58:33.874Z,100961.52
2017-04-30T07:01:21.587Z,100960.02
2017-04-30T07:04:10.444Z,100958.78
2017-04-30T07:06:58.553Z,100961.47
2017-04-30T07:09:46.159Z,100963.57
2017-04-30T07:12:33.969Z,100961.75
2017-04-30T07:15:22.503Z,100964.95
2017-04-30T07:18:10.508Z,100954.17
2017-04-30T07:21:00.679Z,100962.87
2017-04-30T07:23:51.455Z,100963.89
2017-04-30T07:26:40.445Z,100953.00
2017-04-30T07:29:29.915Z,100952.04
2017-04-30T07:32:18.922Z,100937.84
2017-04-30T07:35:07.268Z,100949.05
2017-04-30T07:37:55.817Z,100947.92
2017-04-30T07:40:44.295Z,100943.83
2017-04-30T07:43:22.462Z,100940.28
2017-04-30T07:45:56.009Z,100936.80
2017-04-30T07:48:29.468Z,100935.70
2017-04-30T07:51:02.459Z,100932.57
2017-04-30T07:53:35.014Z,100931.53
2017-04-30T07:56:06.595Z,100932.96
2017-04-30T07:58:39.365Z,100924.64
2017-04-30T08:01:11.297Z,100931.55
2017-04-30T08:03:43.903Z,100930.46
2017-04-30T08:06:16.399Z,100936.39
2017-04-30T08:08:48.461Z,100931.84
2017-04-30T08:11:22.682Z,100925.14
2017-04-30T08:13:56.762Z,100918.75
2017-04-30T08:16:29.788Z,100928.53
2017-04-30T08:19:01.973Z,100920.16
2017-04-30T08:21:33.966Z,100915.62
2017-04-30T08:24:08.318Z,100914.38
2017-04-30T08:26:41.069Z,100908.75
2017-04-30T08:29:12.902Z,100915.91
2017-04-30T08:31:44.943Z,100915.45
2017-04-30T08:34:17.037Z,100911.95
2017-04-30T08:36:49.956Z,100917.57
2017-04-30T08:39:23.547Z,100908.31
2017-04-30T08:41:56.755Z,100899.56
2017-04-30T08:44:28.633Z,100902.09
2017-04-30T08:47:00.803Z,100900.67
2017-04-30T08:49:32.053Z,100896.12
2017-04-30T08:52:04.831Z,100897.98
2017-04-30T08:54:36.320Z,100889.73
2017-04-30T08:57:09.337Z,100885.36
2017-04-30T08:59:41.345Z,100889.47
2017-04-30T09:02:14.066Z,100887.59
2017-04-30T09:04:46.021Z,100878.61
2017-04-30T09:07:20.450Z,100878.91
2017-04-30T09:09:52.410Z,100867.50
2017-04-30T09:12:26.420Z,100881.44
2017-04-30T09:14:58.182Z,100877.81
2017-04-30T09:17:30.155Z,100875.03
2017-04-30T09:20:03.029Z,100878.36
2017-04-30T09:22:34.575Z,100864.73
2017-04-30T09:25:05.688Z,100867.92
2017-04-30T09:27:36.737Z,100870.19
2017-04-30T09:30:07.889Z,100858.03
2017-04-30T09:32:38.730Z,100864.18
2017-04-30T09:35:09.788Z,100850.00
2017-04-30T09:37:43.101Z,100849.09
2017-04-30T09:40:14.021Z,100851.81
2017-04-30T09:42:44.941Z,100849.89
2017-04-30T09:45:15.834Z,100842.30
2017-04-30T09:47:46.923Z,100846.54
2017-04-30T09:50:19.627Z,100846.64
2017-04-30T09:52:50.855Z,100842.69
2017-04-30T09:55:21.972Z,100843.30
2017-04-30T09:57:53.570Z,100840.08
2017-04-30T10:00:24.714Z,100826.95
2017-04-30T10:02:58.075Z,100828.25
2017-04-30T10:05:29.053Z,100833.80
2017-04-30T10:08:00.118Z,100824.42
2017-04-30T10:10:31.140Z,100827.27
2017-04-30T10:13:02.917Z,100819.22
2017-04-30T10:15:33.832Z,100826.64
2017-04-30T10:18:04.875Z,100808.55
2017-04-30T10:20:35.815Z,100815.67
2017-04-30T10:23:06.684Z,100815.08
2017-04-30T10:25:37.530Z,100804.59
2017-04-30T10:28:08.505Z,100804.05
2017-04-30T10:30:39.502Z,100799.52
2017-04-30T10:33:10.556Z,100797.88
2017-04-30T10:35:41.581Z,100789.27
2017-04-30T10:38:12.426Z,100795.95
2017-04-30T10:40:43.468Z,100786.88
2017-04-30T10:43:14.498Z,100786.86
2017-04-30T10:45:45.397Z,100791.39
2017-04-30T10:48:16.269Z,100799.70
2017-04-30T10:50:47.292Z,100778.03
2017-04-30T10:53:18.230Z,100774.16
2017-04-30T10:55:49.105Z,100773.97
2017-04-30T10:58:20.018Z,100779.81
2017-04-30T11:00:50.939Z,100773.36
2017-04-30T11:03:21.995Z,100776.08
2017-04-30T11:05:53.326Z,100780.14
2017-04-30T11:08:24.279Z,100763.91
2017-04-30T11:10:55.303Z,100755.80
2017-04-30T11:13:27.076Z,100756.86
2017-04-30T11:15:58.001Z,100754.34
2017-04-30T11:18:28.941Z,100747.41
2017-04-30T11:21:00.096Z,100746.34
2017-04-30T11:23:31.086Z,100746.18
2017-04-30T11:26:02.114Z,100744.72
2017-04-30T11:28:33.057Z,100741.45
2017-04-30T11:31:03.890Z,100737.15
2017-04-30T11:33:34.800Z,100728.34
2017-04-30T11:36:05.619Z,100730.14
2017-04-30T11:38:36.900Z,100720.09
2017-04-30T11:41:07.750Z,100719.09
2017-04-30T11:43:38.757Z,100720.78
2017-04-30T11:46:09.622Z,100714.09
2017-04-30T11:48:40.701Z,100702.48
2017-04-30T11:51:11.820Z,100708.21
2017-04-30T11:53:42.855Z,100703.36
2017-04-30T11:56:13.838Z,100691.39
2017-04-30T11:58:44.728Z,100696.51
2017-04-30T12:01:15.609Z,100691.64
2017-04-30T12:03:46.476Z,100692.58
2017-04-30T12:06:17.270Z,100693.97
2017-04-30T12:08:48.144Z,100679.27
2017-04-30T12:11:18.941Z,100672.81
2017-04-30T12:13:51.038Z,100670.53
2017-04-30T12:16:22.231Z,100670.92
2017-04-30T12:18:53.098Z,100672.63
2017-04-30T12:21:23.969Z,100660.78
2017-04-30T12:23:54.796Z,100661.25
2017-04-30T12:26:25.686Z,100670.74
2017-04-30T12:28:56.527Z,100667.06
2017-04-30T12:31:27.393Z,100654.92
2017-04-30T12:33:58.235Z,100651.31
2017-04-30T12:36:29.089Z,100659.98
2017-04-30T12:38:59.945Z,100648.85
2017-04-30T12:41:30.817Z,100648.96
2017-04-30T12:44:01.626Z,100641.21
2017-04-30T12:46:32.603Z,100636.82
2017-04-30T12:49:04.457Z,100631.75
2017-04-30T12:51:35.917Z,100635.81
2017-04-30T12:54:06.875Z,100627.25
2017-04-30T12:56:38.099Z,100629.78
2017-04-30T12:59:09.159Z,100614.46
2017-04-30T13:01:40.176Z,100617.81
2017-04-30T13:04:11.126Z,100606.45
2017-04-30T13:06:42.155Z,100604.48
2017-04-30T13:09:13.001Z,100601.70
2017-04-30T13:11:43.725Z,100602.36
2017-04-30T13:14:14.675Z,100591.19
2017-04-30T13:16:45.703Z,100585.20
2017-04-30T13:19:16.762Z,100586.55
2017-04-30T13:21:47.784Z,100579.49
2017-04-30T13:24:18.653Z,100579.76
2017-04-30T13:26:49.642Z,100573.77
2017-04-30T13:29:20.618Z,100579.89
2017-04-30T13:31:51.796Z,100566.91
2017-04-30T13:34:22.894Z,100568.83
2017-04-30T13:36:53.944Z,100562.23
2017-04-30T13:39:24.864Z,100552.37
2017-04-30T13:41:55.921Z,100553.80
2017-04-30T13:44:26.752Z,100545.81
2017-04-30T13:46:57.818Z,100546.47
2017-04-30T13:49:28.623Z,100541.47
2017-04-30T13:51:59.558Z,100550.33
2017-04-30T13:54:30.371Z,100544.14
2017-04-30T13:57:01.309Z,100540.33
2017-04-30T13:59:32.423Z,100531.77
2017-04-30T14:02:03.444Z,100535.94
2017-04-30T14:04:34.377Z,100522.75
2017-04-30T14:07:05.463Z,100517.48
2017-04-30T14:09:36.512Z,100526.23
2017-04-30T14:12:08.390Z,100514.17
2017-04-30T14:14:39.419Z,100506.97
2017-04-30T14:17:10.541Z,100508.09
2017-04-30T14:19:41.494Z,100511.06
2017-04-30T14:22:12.622Z,100502.34
2017-04-30T14:24:43.459Z,100496.33
2017-04-30T14:27:14.409Z,100491.55
2017-04-30T14:29:45.553Z,100493.19
2017-04-30T14:32:16.682Z,100488.67
2017-04-30T14:34:47.491Z,100483.22
2017-04-30T14:37:18.454Z,100485.56
2017-04-30T14:39:49.409Z,100476.30
2017-04-30T14:42:20.398Z,100466.81
2017-04-30T14:44:51.384Z,100464.13
2017-04-30T14:47:22.513Z,100465.69
2017-04-30T14:49:53.386Z,100456.50
2017-04-30T14:52:24.447Z,100451.25
2017-04-30T14:54:55.448Z,100454.78
2017-04-30T14:57:26.468Z,100444.41
2017-04-30T14:59:57.309Z,100433.30
2017-04-30T15:02:28.424Z,100432.44
2017-04-30T15:04:59.394Z,100435.01
2017-04-30T15:07:30.414Z,100435.82
2017-04-30T15:10:01.279Z,100439.28
2017-04-30T15:12:33.573Z,100432.48
2017-04-30T15:15:04.614Z,100432.67
2017-04-30T15:17:35.749Z,100422.72
2017-04-30T15:20:06.907Z,100417.59
2017-04-30T15:22:37.872Z,100419.42
2017-04-30T15:25:08.861Z,100408.34
2017-04-30T15:27:39.916Z,100415.03
2017-04-30T15:30:10.883Z,100415.27
2017-04-30T15:32:41.910Z,100406.91
2017-04-30T15:35:13.007Z,100404.84
2017-04-30T15:37:43.973Z,100402.59
2017-04-30T15:40:14.926Z,100396.29
2017-04-30T15:42:46.042Z,100388.98
2017-04-30T15:45:17.118Z,100378.56
2017-04-30T15:47:48.466Z,100377.98
2017-04-30T15:50:19.389Z,100371.95
2017-04-30T15:52:50.653Z,100379.73
2017-04-30T15:55:21.567Z,100367.22
2017-04-30T15:57:52.639Z,100362.13
2017-04-30T16:00:23.570Z,100363.25
2017-04-30T16:02:54.602Z,100370.88
2017-04-30T16:05:25.560Z,100361.81
2017-04-30T16:08:00.012Z,100354.93
2017-04-30T16:10:34.074Z,100359.91
2017-04-30T16:13:07.866Z,100350.31
2017-04-30T16:15:41.001Z,100349.41
2017-04-30T16:18:13.763Z,100345.33
2017-04-30T16:20:45.803Z,100333.56
2017-04-30T16:23:17.197Z,100335.86
2017-04-30T16:25:50.450Z,100324.31
2017-04-30T16:28:24.581Z,100315.84
2017-04-30T16:30:57.268Z,100313.12
2017-04-30T16:33:30.411Z,100308.39
2017-04-30T16:36:03.258Z,100310.98
2017-04-30T16:38:35.435Z,100317.98
2017-04-30T16:41:07.222Z,100305.86
2017-04-30T16:43:39.550Z,100316.74
2017-04-30T16:46:12.729Z,100312.16
2017-04-30T16:48:45.186Z,100304.93
2017-04-30T16:51:17.024Z,100297.43
2017-04-30T16:53:49.824Z,100298.64
2017-04-30T16:56:21.740Z,100315.49
2017-04-30T16:58:54.102Z,100304.45
2017-04-30T17:01:26.564Z,100297.39
2017-04-30T17:03:57.962Z,100295.41
2017-04-30T17:06:30.346Z,100298.36
2017-04-30T17:09:03.867Z,100298.05
2017-04-30T17:11:37.104Z,100291.75
2017-04-30T17:14:08.783Z,100304.79
2017-04-30T17:16:39.816Z,100291.86
2017-04-30T17:19:10.874Z,100297.22
2017-04-30T17:21:43.586Z,100301.01
2017-04-30T17:24:15.549Z,100302.98
2017-04-30T17:26:46.693Z,100294.16
2017-04-30T17:29:17.992Z,100294.70
2017-04-30T17:31:49.691Z,100292.40
2017-04-30T17:34:21.097Z,100298.11
2017-04-30T17:36:52.343Z,100304.03
2017-04-30T17:39:23.384Z,100306.05
2017-04-30T17:41:53.969Z,100304.44
2017-04-30T17:44:24.986Z,100306.41
2017-04-30T17:46:55.842Z,100303.03
2017-04-30T17:49:26.830Z,100310.56
2017-04-30T17:51:57.981Z,100312.34
2017-04-30T17:54:29.020Z,100314.27
2017-04-30T17:57:00.056Z,100312.17
2017-04-30T17:59:31.107Z,100316.89
2017-04-30T18:02:02.252Z,100316.10
2017-04-30T18:04:33.386Z,100320.34
2017-04-30T18:07:04.422Z,100311.44
2017-04-30T18:09:35.453Z,100310.77
2017-04-30T18:12:06.327Z,100305.53
2017-04-30T18:14:37.233Z,100317.22
2017-04-30T18:17:08.140Z,100319.03
2017-04-30T18:19:39.121Z,100326.66
2017-04-30T18:22:12.419Z,100334.38
2017-04-30T18:24:43.459Z,100324.19
2017-04-30T18:27:17.053Z,100319.16
2017-04-30T18:29:48.396Z,100316.41
2017-04-30T18:32:19.544Z,100313.17
2017-04-30T18:34:50.572Z,100319.04
2017-04-30T18:37:21.622Z,100321.38
2017-04-30T18:39:52.672Z,100319.78
2017-04-30T18:42:23.698Z,100319.81
2017-04-30T18:44:54.648Z,100323.47
2017-04-30T18:47:25.656Z,100318.62
2017-04-30T18:49:56.614Z,100314.41
2017-04-30T18:52:27.593Z,100318.91
2017-04-30T18:54:58.771Z,100316.44
2017-04-30T18:57:32.238Z,100321.16
2017-04-30T19:00:09.598Z,100315.56
2017-04-30T19:02:42.967Z,100325.80
2017-04-30T19:05:13.969Z,100324.36
2017-04-30T19:07:44.866Z,100326.70
2017-04-30T19:10:15.862Z,100327.06
2017-04-30T19:12:46.908Z,100328.21
2017-04-30T19:15:20.486Z,100330.78
2017-04-30T19:17:54.701Z,100325.22
2017-04-30T19:20:27.727Z,100328.83
2017-04-30T19:23:02.619Z,100327.41
2017-04-30T19:25:37.193Z,100330.66
2017-04-30T19:28:11.664Z,100325.52
2017-04-30T19:30:45.950Z,100322.91
2017-04-30T19:33:21.324Z,100320.51
2017-04-30T19:35:55.360Z,100319.83
2017-04-30T19:38:30.717Z,100325.02
2017-04-30T19:41:04.194Z,100325.47
2017-04-30T19:43:37.849Z,100326.81
2017-04-30T19:46:11.237Z,100325.08
2017-04-30T19:48:45.130Z,100327.03
2017-04-30T19:51:18.360Z,100325.52
2017-04-30T19:53:50.390Z,100333.93
2017-04-30T19:56:21.288Z,100335.33
2017-04-30T19:58:53.130Z,100338.33
2017-04-30T20:01:27.487Z,100333.31
2017-04-30T20:04:00.954Z,100342.45
2017-04-30T20:06:35.878Z,100344.70
2017-04-30T20:09:07.365Z,100342.52
2017-04-30T20:11:40.845Z,100338.91
2017-04-30T20:14:15.347Z,100345.51
2017-04-30T20:16:48.137Z,100340.20
2017-04-30T20:19:21.118Z,100342.56
2017-04-30T20:21:54.959Z,100338.17
2017-04-30T20:24:30.296Z,100341.48
2017-04-30T20:27:04.751Z,100351.05
2017-04-30T20:29:39.472Z,100342.17
2017-04-30T20:32:10.618Z,100338.86
2017-04-30T20:34:43.384Z,100336.01
2017-04-30T20:37:15.906Z,100338.58
2017-04-30T20:39:49.089Z,100332.66
2017-04-30T20:42:25.655Z,100342.76
2017-04-30T20:44:57.908Z,100342.16
2017-04-30T20:47:33.091Z,100347.36
2017-04-30T20:50:06.821Z,100335.82
2017-04-30T20:52:38.216Z,100342.72
2017-04-30T20:55:10.617Z,100346.37
2017-04-30T20:57:44.472Z,100343.05
2017-04-30T21:00:17.653Z,100347.95
2017-04-30T21:02:50.000Z,100345.23
2017-04-30T21:05:24.813Z,100343.59
2017-04-30T21:07:56.193Z,100346.04
2017-04-30T21:10:30.037Z,100347.86
2017-04-30T21:13:01.406Z,100347.22
2017-04-30T21:15:34.084Z,100346.63
2017-04-30T21:18:05.515Z,100345.66
2017-04-30T21:20:36.459Z,100342.91
2017-04-30T21:23:07.767Z,100344.16
2017-04-30T21:25:38.710Z,100345.33
2017-04-30T21:28:12.147Z,100344.36
2017-04-30T21:30:44.268Z,100345.37
2017-04-30T21:33:15.207Z,100342.25
2017-04-30T21:35:46.196Z,100345.14
2017-04-30T21:38:17.189Z,100338.05
2017-04-30T21:40:48.069Z,100341.15
2017-04-30T21:43:19.058Z,100340.64
2017-04-30T21:45:50.055Z,100335.58
2017-04-30T21:48:21.035Z,100337.84
2017-04-30T21:50:51.946Z,100335.53
2017-04-30T21:53:22.926Z,100342.72
2017-04-30T21:55:53.816Z,100338.11
2017-04-30T21:58:24.929Z,100342.41
2017-04-30T22:00:55.881Z,100341.94
2017-04-30T22:03:26.908Z,100335.63
2017-04-30T22:05:57.953Z,100334.12
2017-04-30T22:08:28.814Z,100339.13
2017-04-30T22:10:59.827Z,100335.41
2017-04-30T22:13:31.709Z,100338.14
2017-04-30T22:16:02.733Z,100334.94
2017-04-30T22:18:33.773Z,100325.84
2017-04-30T22:21:04.808Z,100329.22
2017-04-30T22:23:35.747Z,100333.92
2017-04-30T22:26:06.663Z,100327.58
2017-04-30T22:28:37.535Z,100332.58
2017-04-30T22:31:08.493Z,100331.35
2017-04-30T22:33:39.400Z,100330.58
2017-04-30T22:36:10.408Z,100324.65
2017-04-30T22:38:41.441Z,100325.63
2017-04-30T22:41:12.551Z,100326.37
2017-04-30T22:43:43.590Z,100312.89
2017-04-30T22:46:14.578Z,100312.27
2017-04-30T22:48:45.670Z,100315.59
2017-04-30T22:51:16.654Z,100306.53
2017-04-30T22:53:47.727Z,100309.17
2017-04-30T22:56:18.725Z,100298.98
2017-04-30T22:58:49.681Z,100307.03
2017-04-30T23:01:20.777Z,100303.65
2017-04-30T23:03:51.754Z,100305.02
2017-04-30T23:06:22.759Z,100301.82
2017-04-30T23:08:53.657Z,100305.75
2017-04-30T23:11:24.643Z,100294.95
2017-04-30T23:13:56.399Z,100297.56
2017-04-30T23:16:27.359Z,100288.86
2017-04-30T23:18:58.349Z,100295.38
2017-04-30T23:21:29.258Z,100291.98
2017-04-30T23:24:00.245Z,100293.59
2017-04-30T23:26:31.261Z,100292.23
2017-04-30T23:29:02.263Z,100290.67
2017-04-30T23:31:33.240Z,100294.85
2017-04-30T23:34:04.183Z,100295.42
2017-04-30T23:36:35.167Z,100290.88
2017-04-30T23:39:07.099Z,100294.56
2017-04-30T23:41:38.099Z,100290.50
2017-04-30T23:44:08.972Z,100284.78
2017-04-30T23:46:40.116Z,100283.03
2017-04-30T23:49:11.142Z,100287.33
2017-04-30T23:51:42.033Z,100287.03
2017-04-30T23:54:13.045Z,100285.04
2017-04-30T23:56:43.977Z,100281.25
2017-04-30T23:59:15.032Z,100286.59
